Sturgeon Bay, WI (54235)

5:43 AM CDT on July 27, 2016 (GMT -0500)
Leif Everson Observatory | | Change Station

Elev 636 ft 44.83 °N, 87.34 °W | Updated 41 seconds ago

Partly Cloudy
Partly Cloudy
70.3 °F
Feels Like 70.3 °F
N
0.0
Wind Variable Wind from North
Gusts 5.0 mph

Today
High -- | Low -- °F
--% Chance of Precip.
Yesterday
High -- | Low -- °F
Precip. -- in
Pressure 30.00 in
Visibility 10.0 miles
Clouds Few 7000 ft
Dew Point 68 °F
Humidity 94%
Rainfall 0.00 in
Snow Depth Not available.
5:30 AM 8:21 PM
Last Quarter, 44% visible
METAR KSUE 270956Z AUTO 02004KT 10SM FEW070 22/19 A2998 RMK AO2 SLP159 T02170189
Pressure 30.00 in
Visibility 10.0 miles
Clouds Few 7000 ft
Dew Point 68 °F
Humidity 94%
Rainfall 0.00 in
Snow Depth Not available.
5:30 AM 8:21 PM
Last Quarter, 44% visible
METAR KSUE 270956Z AUTO 02004KT 10SM FEW070 22/19 A2998 RMK AO2 SLP159 T02170189

10-Day Weather Forecast

Almanac

Astronomy

Jul. 27, 2016 Rise Set
Actual Time
Civil Twilight
Nautical Twilight
Astronomical Twilight
Moon
Length of Visible Light
Length of Day
Tomorrow will be .
, % of the Moon is Illuminated

Today's Extremes

State Highs State Lows

Community

WunderPhotos

Upload Photos

1,927,825 photos uploaded!

WunderBlog® & News

Nearby

Air Quality

  Air Quality AQ Index Pollutant
Not available.

Snow Depth

Station Depth Elevation

Earthquake Activity

City Distance Mag. Time & Date
Minimum magnitude displayed is 2.5.

Coastal Water Temperatures

Place Temperature

Stations

Nearby Weather Stations

Station Location Temp. Windchill Dew Point Humidity Wind Precip. Elev Updated Type
                   

Watches & Warnings

There are currently no watches in effect.